sensor_id;sensor_type;location;lat;lon;timestamp;P1;durP1;ratioP1;P2;durP2;ratioP2
39078;SDS011;24829;49.208;12.080;2023-05-07T00:00:20;6.10;;;3.22;;
39078;SDS011;24829;49.208;12.080;2023-05-07T00:02:46;3.97;;;3.33;;
39078;SDS011;24829;49.208;12.080;2023-05-07T00:05:12;4.30;;;3.42;;
39078;SDS011;24829;49.208;12.080;2023-05-07T00:07:38;4.15;;;3.53;;
39078;SDS011;24829;49.208;12.080;2023-05-07T00:10:04;3.92;;;3.33;;
39078;SDS011;24829;49.208;12.080;2023-05-07T00:12:31;7.38;;;3.50;;
39078;SDS011;24829;49.208;12.080;2023-05-07T00:14:58;5.43;;;3.75;;
39078;SDS011;24829;49.208;12.080;2023-05-07T00:17:27;5.95;;;3.47;;
39078;SDS011;24829;49.208;12.080;2023-05-07T00:19:54;6.18;;;3.67;;
39078;SDS011;24829;49.208;12.080;2023-05-07T00:22:20;4.38;;;3.50;;
39078;SDS011;24829;49.208;12.080;2023-05-07T00:24:46;4.57;;;3.95;;
39078;SDS011;24829;49.208;12.080;2023-05-07T00:27:11;7.18;;;4.10;;
39078;SDS011;24829;49.208;12.080;2023-05-07T00:29:37;5.47;;;4.72;;
39078;SDS011;24829;49.208;12.080;2023-05-07T00:32:02;7.05;;;4.18;;
39078;SDS011;24829;49.208;12.080;2023-05-07T00:34:28;8.05;;;4.10;;
39078;SDS011;24829;49.208;12.080;2023-05-07T00:36:53;11.65;;;5.32;;
39078;SDS011;24829;49.208;12.080;2023-05-07T00:39:19;6.78;;;4.95;;
39078;SDS011;24829;49.208;12.080;2023-05-07T00:41:44;5.35;;;4.57;;
39078;SDS011;24829;49.208;12.080;2023-05-07T00:44:10;10.50;;;5.03;;
39078;SDS011;24829;49.208;12.080;2023-05-07T00:46:36;10.65;;;4.75;;
39078;SDS011;24829;49.208;12.080;2023-05-07T00:49:02;5.50;;;4.90;;
39078;SDS011;24829;49.208;12.080;2023-05-07T00:51:28;7.53;;;5.05;;
39078;SDS011;24829;49.208;12.080;2023-05-07T00:53:54;6.50;;;5.15;;
39078;SDS011;24829;49.208;12.080;2023-05-07T00:56:21;5.88;;;4.63;;
39078;SDS011;24829;49.208;12.080;2023-05-07T00:58:47;7.20;;;6.18;;
39078;SDS011;24829;49.208;12.080;2023-05-07T01:01:13;7.57;;;5.93;;
39078;SDS011;24829;49.208;12.080;2023-05-07T01:03:40;6.88;;;5.55;;
39078;SDS011;24829;49.208;12.080;2023-05-07T01:06:06;7.90;;;5.80;;
39078;SDS011;24829;49.208;12.080;2023-05-07T01:08:34;7.32;;;5.60;;
39078;SDS011;24829;49.208;12.080;2023-05-07T01:11:00;6.15;;;5.45;;
39078;SDS011;24829;49.208;12.080;2023-05-07T01:13:25;8.80;;;5.97;;
39078;SDS011;24829;49.208;12.080;2023-05-07T01:15:52;6.70;;;5.18;;
39078;SDS011;24829;49.208;12.080;2023-05-07T01:18:17;7.82;;;5.72;;
39078;SDS011;24829;49.208;12.080;2023-05-07T01:20:43;10.35;;;6.40;;
39078;SDS011;24829;49.208;12.080;2023-05-07T01:23:10;10.43;;;6.35;;
39078;SDS011;24829;49.208;12.080;2023-05-07T01:25:36;7.00;;;5.63;;
39078;SDS011;24829;49.208;12.080;2023-05-07T01:28:01;6.55;;;5.93;;
39078;SDS011;24829;49.208;12.080;2023-05-07T01:30:27;7.70;;;6.07;;
39078;SDS011;24829;49.208;12.080;2023-05-07T01:33:02;8.60;;;6.95;;
39078;SDS011;24829;49.208;12.080;2023-05-07T01:35:36;6.95;;;5.93;;
39078;SDS011;24829;49.208;12.080;2023-05-07T01:38:04;7.80;;;6.10;;
39078;SDS011;24829;49.208;12.080;2023-05-07T01:40:31;7.75;;;6.28;;
39078;SDS011;24829;49.208;12.080;2023-05-07T01:42:56;8.57;;;6.65;;
39078;SDS011;24829;49.208;12.080;2023-05-07T01:45:22;7.35;;;6.50;;
39078;SDS011;24829;49.208;12.080;2023-05-07T01:47:48;11.18;;;6.78;;
39078;SDS011;24829;49.208;12.080;2023-05-07T01:50:14;10.77;;;7.18;;
39078;SDS011;24829;49.208;12.080;2023-05-07T01:52:43;8.43;;;6.05;;
39078;SDS011;24829;49.208;12.080;2023-05-07T01:55:09;10.65;;;6.75;;
39078;SDS011;24829;49.208;12.080;2023-05-07T01:57:34;8.70;;;7.72;;
39078;SDS011;24829;49.208;12.080;2023-05-07T02:00:00;8.77;;;6.82;;
39078;SDS011;24829;49.208;12.080;2023-05-07T02:02:27;9.73;;;7.20;;
39078;SDS011;24829;49.208;12.080;2023-05-07T02:04:53;11.00;;;7.93;;
39078;SDS011;24829;49.208;12.080;2023-05-07T02:07:18;11.93;;;7.30;;
39078;SDS011;24829;49.208;12.080;2023-05-07T02:09:44;8.45;;;6.80;;
39078;SDS011;24829;49.208;12.080;2023-05-07T02:12:09;11.75;;;6.85;;
39078;SDS011;24829;49.208;12.080;2023-05-07T02:14:35;8.73;;;7.55;;
39078;SDS011;24829;49.208;12.080;2023-05-07T02:17:00;10.75;;;7.97;;
39078;SDS011;24829;49.208;12.080;2023-05-07T02:19:26;13.23;;;8.93;;
39078;SDS011;24829;49.208;12.080;2023-05-07T02:21:51;12.98;;;8.80;;
39078;SDS011;24829;49.208;12.080;2023-05-07T02:24:17;13.30;;;8.48;;
39078;SDS011;24829;49.208;12.080;2023-05-07T02:26:43;17.63;;;9.15;;
39078;SDS011;24829;49.208;12.080;2023-05-07T02:29:08;10.82;;;8.18;;
39078;SDS011;24829;49.208;12.080;2023-05-07T02:31:34;9.30;;;7.65;;
39078;SDS011;24829;49.208;12.080;2023-05-07T02:34:00;9.63;;;8.20;;
39078;SDS011;24829;49.208;12.080;2023-05-07T02:36:26;9.82;;;7.78;;
39078;SDS011;24829;49.208;12.080;2023-05-07T02:38:51;12.40;;;8.88;;
39078;SDS011;24829;49.208;12.080;2023-05-07T02:41:17;10.88;;;8.57;;
39078;SDS011;24829;49.208;12.080;2023-05-07T02:43:43;11.30;;;9.10;;
39078;SDS011;24829;49.208;12.080;2023-05-07T02:46:09;15.05;;;9.82;;
39078;SDS011;24829;49.208;12.080;2023-05-07T02:48:34;17.13;;;9.45;;
39078;SDS011;24829;49.208;12.080;2023-05-07T02:51:00;11.43;;;9.32;;
39078;SDS011;24829;49.208;12.080;2023-05-07T02:53:27;12.10;;;9.18;;
39078;SDS011;24829;49.208;12.080;2023-05-07T02:55:54;13.55;;;9.13;;
39078;SDS011;24829;49.208;12.080;2023-05-07T02:58:20;11.70;;;9.50;;
39078;SDS011;24829;49.208;12.080;2023-05-07T03:00:46;10.63;;;9.52;;
39078;SDS011;24829;49.208;12.080;2023-05-07T03:03:12;10.32;;;9.05;;
39078;SDS011;24829;49.208;12.080;2023-05-07T03:05:37;10.63;;;8.68;;
39078;SDS011;24829;49.208;12.080;2023-05-07T03:08:03;11.05;;;9.52;;
39078;SDS011;24829;49.208;12.080;2023-05-07T03:10:29;11.63;;;9.25;;
39078;SDS011;24829;49.208;12.080;2023-05-07T03:12:54;13.27;;;10.43;;
39078;SDS011;24829;49.208;12.080;2023-05-07T03:15:20;16.75;;;10.70;;
39078;SDS011;24829;49.208;12.080;2023-05-07T03:17:46;17.20;;;9.98;;
39078;SDS011;24829;49.208;12.080;2023-05-07T03:20:12;17.05;;;10.43;;
39078;SDS011;24829;49.208;12.080;2023-05-07T03:22:38;12.88;;;10.40;;
39078;SDS011;24829;49.208;12.080;2023-05-07T03:25:04;15.45;;;10.65;;
39078;SDS011;24829;49.208;12.080;2023-05-07T03:27:30;13.18;;;10.65;;
39078;SDS011;24829;49.208;12.080;2023-05-07T03:29:56;11.82;;;10.10;;
39078;SDS011;24829;49.208;12.080;2023-05-07T03:32:21;13.70;;;10.20;;
39078;SDS011;24829;49.208;12.080;2023-05-07T03:34:47;13.25;;;10.50;;
39078;SDS011;24829;49.208;12.080;2023-05-07T03:37:12;17.73;;;10.85;;
39078;SDS011;24829;49.208;12.080;2023-05-07T03:39:38;15.25;;;11.20;;
39078;SDS011;24829;49.208;12.080;2023-05-07T03:42:03;13.70;;;10.30;;
39078;SDS011;24829;49.208;12.080;2023-05-07T03:44:29;12.77;;;10.00;;
39078;SDS011;24829;49.208;12.080;2023-05-07T03:46:54;13.10;;;10.63;;
39078;SDS011;24829;49.208;12.080;2023-05-07T03:49:20;15.18;;;11.43;;
39078;SDS011;24829;49.208;12.080;2023-05-07T03:51:46;14.85;;;11.43;;
39078;SDS011;24829;49.208;12.080;2023-05-07T03:54:11;24.02;;;11.52;;
39078;SDS011;24829;49.208;12.080;2023-05-07T03:56:37;16.00;;;11.30;;
39078;SDS011;24829;49.208;12.080;2023-05-07T03:59:03;15.10;;;10.70;;
39078;SDS011;24829;49.208;12.080;2023-05-07T04:01:28;13.75;;;10.68;;
39078;SDS011;24829;49.208;12.080;2023-05-07T04:03:54;15.60;;;11.40;;
39078;SDS011;24829;49.208;12.080;2023-05-07T04:06:21;13.98;;;10.85;;
39078;SDS011;24829;49.208;12.080;2023-05-07T04:08:47;14.18;;;11.60;;
39078;SDS011;24829;49.208;12.080;2023-05-07T04:11:12;13.20;;;10.88;;
39078;SDS011;24829;49.208;12.080;2023-05-07T04:13:38;15.38;;;11.13;;
39078;SDS011;24829;49.208;12.080;2023-05-07T04:16:04;13.05;;;11.18;;
39078;SDS011;24829;49.208;12.080;2023-05-07T04:18:30;13.52;;;10.95;;
39078;SDS011;24829;49.208;12.080;2023-05-07T04:20:55;11.35;;;9.82;;
39078;SDS011;24829;49.208;12.080;2023-05-07T04:23:21;13.02;;;11.50;;
39078;SDS011;24829;49.208;12.080;2023-05-07T04:25:47;13.88;;;10.18;;
39078;SDS011;24829;49.208;12.080;2023-05-07T04:28:12;13.57;;;10.65;;
39078;SDS011;24829;49.208;12.080;2023-05-07T04:30:38;12.75;;;10.43;;
39078;SDS011;24829;49.208;12.080;2023-05-07T04:33:04;13.43;;;9.95;;
39078;SDS011;24829;49.208;12.080;2023-05-07T04:35:29;13.38;;;9.55;;
39078;SDS011;24829;49.208;12.080;2023-05-07T04:37:55;12.68;;;9.75;;
39078;SDS011;24829;49.208;12.080;2023-05-07T04:40:20;10.60;;;9.02;;
39078;SDS011;24829;49.208;12.080;2023-05-07T04:42:46;10.90;;;9.38;;
39078;SDS011;24829;49.208;12.080;2023-05-07T04:45:11;12.57;;;8.93;;
39078;SDS011;24829;49.208;12.080;2023-05-07T04:47:37;14.25;;;8.82;;
39078;SDS011;24829;49.208;12.080;2023-05-07T04:50:03;9.38;;;8.43;;
39078;SDS011;24829;49.208;12.080;2023-05-07T04:52:30;9.98;;;8.75;;
39078;SDS011;24829;49.208;12.080;2023-05-07T04:54:56;11.23;;;9.15;;
39078;SDS011;24829;49.208;12.080;2023-05-07T04:57:24;12.32;;;9.43;;
39078;SDS011;24829;49.208;12.080;2023-05-07T04:59:49;12.18;;;9.23;;
39078;SDS011;24829;49.208;12.080;2023-05-07T05:02:15;12.10;;;8.50;;
39078;SDS011;24829;49.208;12.080;2023-05-07T05:04:41;10.52;;;8.43;;
39078;SDS011;24829;49.208;12.080;2023-05-07T05:07:06;10.10;;;8.23;;
39078;SDS011;24829;49.208;12.080;2023-05-07T05:09:32;9.77;;;8.70;;
39078;SDS011;24829;49.208;12.080;2023-05-07T05:11:57;12.15;;;8.23;;
39078;SDS011;24829;49.208;12.080;2023-05-07T05:14:24;9.30;;;8.38;;
39078;SDS011;24829;49.208;12.080;2023-05-07T05:16:50;10.70;;;8.35;;
39078;SDS011;24829;49.208;12.080;2023-05-07T05:19:15;9.85;;;8.18;;
39078;SDS011;24829;49.208;12.080;2023-05-07T05:21:41;9.10;;;8.23;;
39078;SDS011;24829;49.208;12.080;2023-05-07T05:24:07;9.35;;;8.18;;
39078;SDS011;24829;49.208;12.080;2023-05-07T05:26:32;9.73;;;8.10;;
39078;SDS011;24829;49.208;12.080;2023-05-07T05:28:59;9.88;;;8.23;;
39078;SDS011;24829;49.208;12.080;2023-05-07T05:31:24;10.20;;;7.88;;
39078;SDS011;24829;49.208;12.080;2023-05-07T05:33:50;11.95;;;7.82;;
39078;SDS011;24829;49.208;12.080;2023-05-07T05:36:16;9.38;;;7.85;;
39078;SDS011;24829;49.208;12.080;2023-05-07T05:38:41;8.18;;;7.35;;
39078;SDS011;24829;49.208;12.080;2023-05-07T05:41:07;9.38;;;8.35;;
39078;SDS011;24829;49.208;12.080;2023-05-07T05:43:32;8.82;;;7.90;;
39078;SDS011;24829;49.208;12.080;2023-05-07T05:45:58;8.15;;;7.10;;
39078;SDS011;24829;49.208;12.080;2023-05-07T05:48:24;8.38;;;7.53;;
39078;SDS011;24829;49.208;12.080;2023-05-07T05:50:49;8.77;;;7.40;;
39078;SDS011;24829;49.208;12.080;2023-05-07T05:53:15;11.90;;;7.95;;
39078;SDS011;24829;49.208;12.080;2023-05-07T05:55:41;13.20;;;8.07;;
39078;SDS011;24829;49.208;12.080;2023-05-07T05:58:06;8.30;;;6.97;;
39078;SDS011;24829;49.208;12.080;2023-05-07T06:00:32;9.70;;;7.78;;
39078;SDS011;24829;49.208;12.080;2023-05-07T06:02:58;8.02;;;7.22;;
39078;SDS011;24829;49.208;12.080;2023-05-07T06:05:24;8.88;;;7.97;;
39078;SDS011;24829;49.208;12.080;2023-05-07T06:07:49;10.15;;;7.55;;
39078;SDS011;24829;49.208;12.080;2023-05-07T06:10:15;9.40;;;6.78;;
39078;SDS011;24829;49.208;12.080;2023-05-07T06:12:40;13.23;;;7.75;;
39078;SDS011;24829;49.208;12.080;2023-05-07T06:15:06;7.80;;;5.95;;
39078;SDS011;24829;49.208;12.080;2023-05-07T06:17:32;9.23;;;8.32;;
39078;SDS011;24829;49.208;12.080;2023-05-07T06:19:57;11.20;;;8.15;;
39078;SDS011;24829;49.208;12.080;2023-05-07T06:22:23;8.48;;;7.30;;
39078;SDS011;24829;49.208;12.080;2023-05-07T06:24:48;8.60;;;7.13;;
39078;SDS011;24829;49.208;12.080;2023-05-07T06:27:14;9.10;;;6.82;;
39078;SDS011;24829;49.208;12.080;2023-05-07T06:29:39;7.65;;;6.15;;
39078;SDS011;24829;49.208;12.080;2023-05-07T06:32:11;7.95;;;6.68;;
39078;SDS011;24829;49.208;12.080;2023-05-07T06:34:38;9.15;;;6.78;;
39078;SDS011;24829;49.208;12.080;2023-05-07T06:37:05;12.13;;;7.38;;
39078;SDS011;24829;49.208;12.080;2023-05-07T06:39:31;8.65;;;7.47;;
39078;SDS011;24829;49.208;12.080;2023-05-07T06:41:56;8.93;;;6.72;;
39078;SDS011;24829;49.208;12.080;2023-05-07T06:44:22;10.55;;;7.40;;
39078;SDS011;24829;49.208;12.080;2023-05-07T06:46:48;8.35;;;6.70;;
39078;SDS011;24829;49.208;12.080;2023-05-07T06:49:13;9.27;;;6.93;;
39078;SDS011;24829;49.208;12.080;2023-05-07T06:51:39;8.25;;;7.13;;
39078;SDS011;24829;49.208;12.080;2023-05-07T06:54:05;8.48;;;7.45;;
39078;SDS011;24829;49.208;12.080;2023-05-07T06:56:31;8.48;;;7.28;;
39078;SDS011;24829;49.208;12.080;2023-05-07T06:58:57;9.13;;;6.65;;
39078;SDS011;24829;49.208;12.080;2023-05-07T07:01:23;8.75;;;6.45;;
39078;SDS011;24829;49.208;12.080;2023-05-07T07:03:48;7.93;;;6.90;;
39078;SDS011;24829;49.208;12.080;2023-05-07T07:06:14;7.25;;;6.55;;
39078;SDS011;24829;49.208;12.080;2023-05-07T07:08:39;8.57;;;6.55;;
39078;SDS011;24829;49.208;12.080;2023-05-07T07:11:05;11.40;;;7.13;;
39078;SDS011;24829;49.208;12.080;2023-05-07T07:13:31;8.18;;;6.43;;
39078;SDS011;24829;49.208;12.080;2023-05-07T07:15:57;9.80;;;6.15;;
39078;SDS011;24829;49.208;12.080;2023-05-07T07:18:22;7.43;;;6.75;;
39078;SDS011;24829;49.208;12.080;2023-05-07T07:20:48;10.68;;;6.18;;
39078;SDS011;24829;49.208;12.080;2023-05-07T07:23:14;8.85;;;7.10;;
39078;SDS011;24829;49.208;12.080;2023-05-07T07:25:39;8.55;;;5.95;;
39078;SDS011;24829;49.208;12.080;2023-05-07T07:28:05;8.10;;;6.35;;
39078;SDS011;24829;49.208;12.080;2023-05-07T07:30:31;8.15;;;6.15;;
39078;SDS011;24829;49.208;12.080;2023-05-07T07:32:56;7.40;;;6.38;;
39078;SDS011;24829;49.208;12.080;2023-05-07T07:35:27;6.97;;;6.18;;
39078;SDS011;24829;49.208;12.080;2023-05-07T07:37:53;8.25;;;6.32;;
39078;SDS011;24829;49.208;12.080;2023-05-07T07:40:19;7.30;;;6.35;;
39078;SDS011;24829;49.208;12.080;2023-05-07T07:42:44;9.10;;;6.93;;
39078;SDS011;24829;49.208;12.080;2023-05-07T07:45:10;10.02;;;8.32;;
39078;SDS011;24829;49.208;12.080;2023-05-07T07:47:36;10.15;;;6.07;;
39078;SDS011;24829;49.208;12.080;2023-05-07T07:50:01;7.50;;;5.68;;
39078;SDS011;24829;49.208;12.080;2023-05-07T07:52:27;8.02;;;6.68;;
39078;SDS011;24829;49.208;12.080;2023-05-07T07:54:52;8.13;;;6.07;;
39078;SDS011;24829;49.208;12.080;2023-05-07T07:57:18;9.32;;;6.68;;
39078;SDS011;24829;49.208;12.080;2023-05-07T07:59:43;5.68;;;5.18;;
39078;SDS011;24829;49.208;12.080;2023-05-07T08:02:09;9.43;;;5.88;;
39078;SDS011;24829;49.208;12.080;2023-05-07T08:04:34;9.00;;;6.47;;
39078;SDS011;24829;49.208;12.080;2023-05-07T08:07:02;7.57;;;6.50;;
39078;SDS011;24829;49.208;12.080;2023-05-07T08:09:27;7.65;;;6.25;;
39078;SDS011;24829;49.208;12.080;2023-05-07T08:11:53;7.38;;;5.97;;
39078;SDS011;24829;49.208;12.080;2023-05-07T08:14:18;8.52;;;5.88;;
39078;SDS011;24829;49.208;12.080;2023-05-07T08:16:44;7.18;;;5.80;;
39078;SDS011;24829;49.208;12.080;2023-05-07T08:19:10;8.77;;;5.93;;
39078;SDS011;24829;49.208;12.080;2023-05-07T08:21:38;8.85;;;5.88;;
39078;SDS011;24829;49.208;12.080;2023-05-07T08:24:04;7.18;;;5.68;;
39078;SDS011;24829;49.208;12.080;2023-05-07T08:26:30;7.35;;;6.57;;
39078;SDS011;24829;49.208;12.080;2023-05-07T08:28:55;7.07;;;6.38;;
39078;SDS011;24829;49.208;12.080;2023-05-07T08:31:21;7.32;;;6.40;;
39078;SDS011;24829;49.208;12.080;2023-05-07T08:33:46;8.18;;;7.35;;
39078;SDS011;24829;49.208;12.080;2023-05-07T08:36:12;7.45;;;6.72;;
39078;SDS011;24829;49.208;12.080;2023-05-07T08:38:37;15.63;;;8.25;;
39078;SDS011;24829;49.208;12.080;2023-05-07T08:41:05;8.73;;;6.10;;
39078;SDS011;24829;49.208;12.080;2023-05-07T08:43:32;7.78;;;6.05;;
39078;SDS011;24829;49.208;12.080;2023-05-07T08:46:01;8.07;;;7.00;;
39078;SDS011;24829;49.208;12.080;2023-05-07T08:48:27;8.98;;;6.68;;
39078;SDS011;24829;49.208;12.080;2023-05-07T08:50:57;8.25;;;6.75;;
39078;SDS011;24829;49.208;12.080;2023-05-07T08:53:23;6.95;;;6.13;;
39078;SDS011;24829;49.208;12.080;2023-05-07T08:55:49;7.65;;;6.85;;
39078;SDS011;24829;49.208;12.080;2023-05-07T08:58:15;13.68;;;10.82;;
39078;SDS011;24829;49.208;12.080;2023-05-07T09:00:41;19.08;;;13.52;;
39078;SDS011;24829;49.208;12.080;2023-05-07T09:03:07;7.75;;;6.95;;
39078;SDS011;24829;49.208;12.080;2023-05-07T09:05:32;13.55;;;10.70;;
39078;SDS011;24829;49.208;12.080;2023-05-07T09:08:05;18.45;;;11.80;;
39078;SDS011;24829;49.208;12.080;2023-05-07T09:10:35;18.70;;;14.93;;
39078;SDS011;24829;49.208;12.080;2023-05-07T09:13:00;8.73;;;7.93;;
39078;SDS011;24829;49.208;12.080;2023-05-07T09:15:27;8.23;;;7.35;;
39078;SDS011;24829;49.208;12.080;2023-05-07T09:17:53;7.40;;;6.70;;
39078;SDS011;24829;49.208;12.080;2023-05-07T09:20:19;9.48;;;7.68;;
39078;SDS011;24829;49.208;12.080;2023-05-07T09:22:45;8.20;;;6.65;;
39078;SDS011;24829;49.208;12.080;2023-05-07T09:25:10;9.68;;;6.05;;
39078;SDS011;24829;49.208;12.080;2023-05-07T09:27:36;10.07;;;7.78;;
39078;SDS011;24829;49.208;12.080;2023-05-07T09:30:05;21.75;;;9.68;;
39078;SDS011;24829;49.208;12.080;2023-05-07T09:32:34;7.40;;;6.68;;
39078;SDS011;24829;49.208;12.080;2023-05-07T09:35:02;9.48;;;7.10;;
39078;SDS011;24829;49.208;12.080;2023-05-07T09:37:28;8.80;;;7.72;;
39078;SDS011;24829;49.208;12.080;2023-05-07T09:39:56;9.88;;;8.75;;
39078;SDS011;24829;49.208;12.080;2023-05-07T09:42:24;8.27;;;7.32;;
39078;SDS011;24829;49.208;12.080;2023-05-07T09:44:52;7.00;;;6.30;;
39078;SDS011;24829;49.208;12.080;2023-05-07T09:47:18;7.15;;;6.43;;
39078;SDS011;24829;49.208;12.080;2023-05-07T09:49:46;8.77;;;7.85;;
39078;SDS011;24829;49.208;12.080;2023-05-07T09:52:13;9.30;;;7.38;;
39078;SDS011;24829;49.208;12.080;2023-05-07T09:54:39;8.02;;;7.13;;
39078;SDS011;24829;49.208;12.080;2023-05-07T09:57:07;7.47;;;6.30;;
39078;SDS011;24829;49.208;12.080;2023-05-07T09:59:36;7.88;;;6.05;;
39078;SDS011;24829;49.208;12.080;2023-05-07T10:02:03;7.13;;;6.25;;
39078;SDS011;24829;49.208;12.080;2023-05-07T10:04:30;8.35;;;6.82;;
39078;SDS011;24829;49.208;12.080;2023-05-07T10:06:57;7.80;;;6.13;;
39078;SDS011;24829;49.208;12.080;2023-05-07T10:09:25;6.65;;;5.85;;
39078;SDS011;24829;49.208;12.080;2023-05-07T10:11:51;8.60;;;6.00;;
39078;SDS011;24829;49.208;12.080;2023-05-07T10:14:17;5.95;;;5.32;;
39078;SDS011;24829;49.208;12.080;2023-05-07T10:16:42;6.32;;;5.47;;
39078;SDS011;24829;49.208;12.080;2023-05-07T10:19:08;8.75;;;5.32;;
39078;SDS011;24829;49.208;12.080;2023-05-07T10:21:39;5.68;;;5.07;;
39078;SDS011;24829;49.208;12.080;2023-05-07T10:24:10;9.40;;;5.45;;
39078;SDS011;24829;49.208;12.080;2023-05-07T10:26:45;10.10;;;5.57;;
39078;SDS011;24829;49.208;12.080;2023-05-07T10:29:15;7.53;;;5.65;;
39078;SDS011;24829;49.208;12.080;2023-05-07T10:31:55;7.32;;;5.50;;
39078;SDS011;24829;49.208;12.080;2023-05-07T10:34:38;6.88;;;4.65;;
39078;SDS011;24829;49.208;12.080;2023-05-07T10:37:06;6.57;;;5.00;;
39078;SDS011;24829;49.208;12.080;2023-05-07T10:39:34;7.13;;;5.22;;
39078;SDS011;24829;49.208;12.080;2023-05-07T10:42:09;9.40;;;5.50;;
39078;SDS011;24829;49.208;12.080;2023-05-07T10:44:35;6.05;;;5.00;;
39078;SDS011;24829;49.208;12.080;2023-05-07T10:47:09;6.43;;;5.65;;
39078;SDS011;24829;49.208;12.080;2023-05-07T10:49:36;6.20;;;5.35;;
39078;SDS011;24829;49.208;12.080;2023-05-07T10:52:12;5.95;;;4.75;;
39078;SDS011;24829;49.208;12.080;2023-05-07T10:54:39;4.97;;;4.35;;
39078;SDS011;24829;49.208;12.080;2023-05-07T11:05:24;4.68;;;4.13;;
39078;SDS011;24829;49.208;12.080;2023-05-07T11:07:58;4.95;;;3.80;;
39078;SDS011;24829;49.208;12.080;2023-05-07T11:13:12;4.97;;;4.07;;
39078;SDS011;24829;49.208;12.080;2023-05-07T11:15:39;6.63;;;4.85;;
39078;SDS011;24829;49.208;12.080;2023-05-07T11:18:08;6.80;;;4.90;;
39078;SDS011;24829;49.208;12.080;2023-05-07T11:20:50;5.15;;;4.43;;
39078;SDS011;24829;49.208;12.080;2023-05-07T11:26:08;4.20;;;3.65;;
39078;SDS011;24829;49.208;12.080;2023-05-07T11:28:38;5.03;;;4.53;;
39078;SDS011;24829;49.208;12.080;2023-05-07T11:31:05;7.38;;;4.95;;
39078;SDS011;24829;49.208;12.080;2023-05-07T11:33:31;9.75;;;5.10;;
39078;SDS011;24829;49.208;12.080;2023-05-07T11:35:57;5.88;;;4.20;;
39078;SDS011;24829;49.208;12.080;2023-05-07T11:38:24;6.75;;;5.50;;
39078;SDS011;24829;49.208;12.080;2023-05-07T11:43:20;5.07;;;4.05;;
39078;SDS011;24829;49.208;12.080;2023-05-07T11:45:46;5.32;;;3.15;;
39078;SDS011;24829;49.208;12.080;2023-05-07T11:48:12;5.00;;;3.75;;
39078;SDS011;24829;49.208;12.080;2023-05-07T11:50:51;5.50;;;4.60;;
39078;SDS011;24829;49.208;12.080;2023-05-07T11:53:18;8.45;;;4.68;;
39078;SDS011;24829;49.208;12.080;2023-05-07T11:55:45;6.70;;;4.78;;
39078;SDS011;24829;49.208;12.080;2023-05-07T11:58:12;6.75;;;4.63;;
39078;SDS011;24829;49.208;12.080;2023-05-07T12:00:50;5.30;;;3.92;;
39078;SDS011;24829;49.208;12.080;2023-05-07T12:03:17;5.00;;;3.63;;
39078;SDS011;24829;49.208;12.080;2023-05-07T12:05:45;9.80;;;3.67;;
39078;SDS011;24829;49.208;12.080;2023-05-07T12:08:14;5.93;;;3.20;;
39078;SDS011;24829;49.208;12.080;2023-05-07T12:10:44;5.05;;;4.22;;
39078;SDS011;24829;49.208;12.080;2023-05-07T12:13:17;6.60;;;4.43;;
39078;SDS011;24829;49.208;12.080;2023-05-07T12:15:44;5.90;;;4.32;;
39078;SDS011;24829;49.208;12.080;2023-05-07T12:18:12;5.85;;;4.65;;
39078;SDS011;24829;49.208;12.080;2023-05-07T12:20:38;4.90;;;4.15;;
39078;SDS011;24829;49.208;12.080;2023-05-07T12:23:04;6.15;;;4.88;;
39078;SDS011;24829;49.208;12.080;2023-05-07T12:25:39;6.05;;;4.60;;
39078;SDS011;24829;49.208;12.080;2023-05-07T12:28:12;4.75;;;4.20;;
39078;SDS011;24829;49.208;12.080;2023-05-07T12:30:39;5.28;;;4.43;;
39078;SDS011;24829;49.208;12.080;2023-05-07T12:33:05;8.45;;;4.65;;
39078;SDS011;24829;49.208;12.080;2023-05-07T12:35:32;5.57;;;4.45;;
39078;SDS011;24829;49.208;12.080;2023-05-07T12:38:01;8.75;;;4.63;;
39078;SDS011;24829;49.208;12.080;2023-05-07T12:43:24;5.22;;;4.13;;
39078;SDS011;24829;49.208;12.080;2023-05-07T12:45:52;5.55;;;4.18;;
39078;SDS011;24829;49.208;12.080;2023-05-07T12:48:19;5.22;;;4.35;;
39078;SDS011;24829;49.208;12.080;2023-05-07T12:50:48;7.78;;;4.43;;
39078;SDS011;24829;49.208;12.080;2023-05-07T12:53:22;5.85;;;4.10;;
39078;SDS011;24829;49.208;12.080;2023-05-07T12:55:50;5.15;;;4.22;;
39078;SDS011;24829;49.208;12.080;2023-05-07T13:00:49;5.15;;;3.83;;
39078;SDS011;24829;49.208;12.080;2023-05-07T13:03:21;4.57;;;2.80;;
39078;SDS011;24829;49.208;12.080;2023-05-07T13:05:48;3.35;;;2.33;;
39078;SDS011;24829;49.208;12.080;2023-05-07T13:08:23;2.88;;;2.42;;
39078;SDS011;24829;49.208;12.080;2023-05-07T13:10:52;9.45;;;4.13;;
39078;SDS011;24829;49.208;12.080;2023-05-07T13:13:18;5.38;;;2.72;;
39078;SDS011;24829;49.208;12.080;2023-05-07T13:15:45;4.00;;;2.67;;
39078;SDS011;24829;49.208;12.080;2023-05-07T13:18:11;6.10;;;3.00;;
39078;SDS011;24829;49.208;12.080;2023-05-07T13:20:36;5.55;;;3.00;;
39078;SDS011;24829;49.208;12.080;2023-05-07T13:23:02;5.68;;;3.45;;
39078;SDS011;24829;49.208;12.080;2023-05-07T13:25:29;3.30;;;3.00;;
39078;SDS011;24829;49.208;12.080;2023-05-07T13:27:56;5.25;;;4.00;;
39078;SDS011;24829;49.208;12.080;2023-05-07T13:30:22;4.13;;;3.30;;
39078;SDS011;24829;49.208;12.080;2023-05-07T13:32:48;6.35;;;3.58;;
39078;SDS011;24829;49.208;12.080;2023-05-07T13:35:15;4.28;;;2.90;;
39078;SDS011;24829;49.208;12.080;2023-05-07T13:37:41;6.40;;;2.97;;
39078;SDS011;24829;49.208;12.080;2023-05-07T13:40:07;5.25;;;3.60;;
39078;SDS011;24829;49.208;12.080;2023-05-07T13:42:33;5.43;;;3.10;;
39078;SDS011;24829;49.208;12.080;2023-05-07T13:44:58;4.72;;;3.38;;
39078;SDS011;24829;49.208;12.080;2023-05-07T13:47:24;3.88;;;3.42;;
39078;SDS011;24829;49.208;12.080;2023-05-07T13:49:49;3.92;;;3.28;;
39078;SDS011;24829;49.208;12.080;2023-05-07T13:52:15;5.05;;;3.55;;
39078;SDS011;24829;49.208;12.080;2023-05-07T13:54:41;4.45;;;3.35;;
39078;SDS011;24829;49.208;12.080;2023-05-07T13:57:07;7.15;;;5.38;;
39078;SDS011;24829;49.208;12.080;2023-05-07T13:59:33;5.78;;;3.60;;
39078;SDS011;24829;49.208;12.080;2023-05-07T14:01:58;3.25;;;2.92;;
39078;SDS011;24829;49.208;12.080;2023-05-07T14:04:24;6.63;;;3.58;;
39078;SDS011;24829;49.208;12.080;2023-05-07T14:06:50;4.80;;;3.40;;
39078;SDS011;24829;49.208;12.080;2023-05-07T14:09:16;6.15;;;3.92;;
39078;SDS011;24829;49.208;12.080;2023-05-07T14:11:41;6.90;;;4.50;;
39078;SDS011;24829;49.208;12.080;2023-05-07T14:14:07;4.85;;;4.32;;
39078;SDS011;24829;49.208;12.080;2023-05-07T14:16:35;5.50;;;3.67;;
39078;SDS011;24829;49.208;12.080;2023-05-07T14:19:01;4.80;;;3.30;;
39078;SDS011;24829;49.208;12.080;2023-05-07T14:21:26;3.38;;;3.03;;
39078;SDS011;24829;49.208;12.080;2023-05-07T14:23:52;3.75;;;2.92;;
39078;SDS011;24829;49.208;12.080;2023-05-07T14:26:17;4.50;;;2.80;;
39078;SDS011;24829;49.208;12.080;2023-05-07T14:28:44;7.00;;;3.05;;
39078;SDS011;24829;49.208;12.080;2023-05-07T14:31:11;4.30;;;3.60;;
39078;SDS011;24829;49.208;12.080;2023-05-07T14:33:37;3.78;;;2.55;;
39078;SDS011;24829;49.208;12.080;2023-05-07T14:36:02;4.20;;;3.58;;
39078;SDS011;24829;49.208;12.080;2023-05-07T14:38:28;7.10;;;3.30;;
39078;SDS011;24829;49.208;12.080;2023-05-07T14:40:55;7.53;;;3.33;;
39078;SDS011;24829;49.208;12.080;2023-05-07T14:43:21;5.15;;;3.22;;
39078;SDS011;24829;49.208;12.080;2023-05-07T14:45:47;3.72;;;3.30;;